Arlne — WDC9108 — position and weather

sailwx.info

Track history (hours):
 
Tides and Currents Weather Stations Pressure Air Temp Water Temp Dewpoint Dewpoint Depression Visibility Wind Speed Wind Dir Waves Ship Positions

Arlne

Owner: N. R. Broussard Landing, Inc., ABBEVILLE, LA. More information available from US FCC via Universal Licensing System and Coast Guard Vessel Documentation Center.

Last reported at 2018-Feb-19 11:30 UTC. Time now 2018-Feb-25 15:27 UTC.
Position N 29°35' W 090°36'.

Length 20 m; draft 2.5 m.

Type: Tug. MMSI: 367097670.

Date/timePositionNaut miles runAvg speedWind from/ knotsBaromVisibWave heightAir tempDewpointWater temp
2018-Feb-19 11:30N 29°35' W 090°36'3 4.5
2018-Feb-19 10:54N 29°36' W 090°39'2 5.1
2018-Feb-19 10:30N 29°36' W 090°41'2 3.3
2018-Feb-19 10:00N 29°35' W 090°43'2 3.7
2018-Feb-19 09:30N 29°34' W 090°44'2 4.0
2018-Feb-19 09:00N 29°33' W 090°46'3 5.9
2018-Feb-19 08:29N 29°32' W 090°49'2 0.2
2018-Feb-18 19:56N 29°32' W 090°47'2 5.3
2018-Feb-18 19:30N 29°34' W 090°45'2 5.0
2018-Feb-18 19:00N 29°36' W 090°43'2 4.0
2018-Feb-18 18:30N 29°36' W 090°40'3 6.3
2018-Feb-18 18:00N 29°35' W 090°37'  
2018-Feb-15 07:44N 29°35' W 090°36'1 5.2
2018-Feb-15 07:30N 29°35' W 090°37'3 5.5
2018-Feb-15 07:00N 29°36' W 090°40'2 5.0
2018-Feb-15 06:30N 29°37' W 090°43'3 5.5
2018-Feb-15 06:00N 29°34' W 090°43'3 5.0
2018-Feb-15 05:30N 29°32' W 090°46'3 5.7
2018-Feb-15 04:56N 29°32' W 090°49'66 3.5
2018-Feb-14 10:06N 29°49' W 092°03'2 7.8
2018-Feb-14 09:53N 29°48' W 092°05'3 7.8
2018-Feb-14 09:30N 29°47' W 092°08'2 4.8
2018-Feb-14 09:00N 29°47' W 092°11'0 0.2
2018-Feb-14 08:30N 29°47' W 092°11'0 0.0
2018-Feb-14 08:00N 29°47' W 092°11'0 0.0
2018-Feb-14 07:30N 29°47' W 092°11'0 0.0
2018-Feb-14 07:00N 29°47' W 092°11'0 0.0
2018-Feb-14 06:30N 29°47' W 092°11'0 0.3
2018-Feb-14 05:59N 29°47' W 092°11'0 0.0
2018-Feb-14 05:29N 29°47' W 092°11'0 0.0
2018-Feb-14 04:59N 29°47' W 092°11'0 0.0
2018-Feb-14 04:29N 29°47' W 092°11'6 0.1
2018-Feb-12 05:21N 29°49' W 092°17'2 4.5
2018-Feb-12 05:00N 29°48' W 092°15'2 4.6
2018-Feb-12 04:30N 29°47' W 092°13'2 4.2
2018-Feb-12 04:00N 29°47' W 092°11'0 0.9
2018-Feb-12 03:28N 29°47' W 092°10'0 0.1
2018-Feb-12 03:00N 29°47' W 092°10'1 1.8
2018-Feb-12 02:28N 29°47' W 092°11'0 0.0
2018-Feb-12 01:58N 29°47' W 092°11'0 0.0
2018-Feb-12 01:28N 29°47' W 092°11'0 0.0
2018-Feb-12 00:58N 29°47' W 092°11'0 0.0
2018-Feb-12 00:28N 29°47' W 092°11'0 0.0
2018-Feb-11 23:58N 29°47' W 092°11'0 0.0
2018-Feb-11 23:28N 29°47' W 092°11'0 0.0
2018-Feb-11 22:58N 29°47' W 092°11'0 0.0
2018-Feb-11 22:28N 29°47' W 092°11'0 0.0
2018-Feb-11 21:58N 29°47' W 092°11'0 0.0
2018-Feb-11 21:28N 29°47' W 092°11'0 0.0
2018-Feb-11 20:58N 29°47' W 092°11'0 0.0
2018-Feb-11 20:28N 29°47' W 092°11'0 0.0
2018-Feb-11 19:58N 29°47' W 092°11'0 0.0
2018-Feb-11 19:28N 29°47' W 092°11'0 0.0
2018-Feb-11 18:55N 29°47' W 092°11'0 0.0
2018-Feb-11 18:28N 29°47' W 092°11'0 0.0
2018-Feb-11 17:58N 29°47' W 092°11'0 0.0
2018-Feb-11 17:28N 29°47' W 092°11'0 0.0
2018-Feb-11 16:58N 29°47' W 092°11'0 0.0
2018-Feb-11 16:28N 29°47' W 092°11'0 0.0
2018-Feb-11 15:58N 29°47' W 092°11'0 0.0
2018-Feb-11 15:28N 29°47' W 092°11'0 0.0
2018-Feb-11 14:58N 29°47' W 092°11'0 0.1
2018-Feb-11 14:28N 29°47' W 092°11'0 0.0
2018-Feb-11 13:58N 29°47' W 092°11'0 0.0
2018-Feb-11 13:28N 29°47' W 092°11'0 0.0
2018-Feb-11 12:58N 29°47' W 092°11'0 0.0
2018-Feb-11 12:28N 29°47' W 092°11'0 0.0
2018-Feb-11 11:58N 29°47' W 092°11'0 0.0
2018-Feb-11 11:28N 29°47' W 092°11'0 0.0
2018-Feb-11 10:58N 29°47' W 092°11'0 0.0
2018-Feb-11 10:28N 29°47' W 092°11'0 0.0
2018-Feb-11 09:58N 29°47' W 092°11'0 0.0
2018-Feb-11 09:28N 29°47' W 092°11'0 0.0
2018-Feb-11 08:58N 29°47' W 092°11'0 0.0
2018-Feb-11 08:28N 29°47' W 092°11'0 0.0
2018-Feb-11 07:58N 29°47' W 092°11'0 0.0
2018-Feb-11 07:28N 29°47' W 092°11'0 0.0
2018-Feb-11 06:58N 29°47' W 092°11'0 0.0
2018-Feb-11 06:28N 29°47' W 092°11'0 0.0
2018-Feb-11 05:58N 29°47' W 092°11'0 0.0
2018-Feb-11 05:28N 29°47' W 092°11'0 0.0
2018-Feb-11 04:58N 29°47' W 092°11'0 0.0
2018-Feb-11 04:28N 29°47' W 092°11'0 0.0
2018-Feb-11 03:58N 29°47' W 092°11'0 0.0
2018-Feb-11 03:28N 29°47' W 092°11'0 0.0
2018-Feb-11 02:58N 29°47' W 092°11'0 0.0
2018-Feb-11 02:28N 29°47' W 092°11'0 0.0
2018-Feb-11 01:58N 29°47' W 092°11'0 0.0
2018-Feb-11 01:28N 29°47' W 092°11'0 0.0
2018-Feb-11 00:58N 29°47' W 092°11'0 0.0
2018-Feb-11 00:28N 29°47' W 092°11'0 0.0
2018-Feb-10 23:58N 29°47' W 092°11'0 0.0
2018-Feb-10 23:28N 29°47' W 092°11'0 0.0
2018-Feb-10 22:58N 29°47' W 092°11'0 0.0
2018-Feb-10 22:25N 29°47' W 092°11'0 0.0
2018-Feb-10 21:58N 29°47' W 092°11'0 0.0
2018-Feb-10 21:28N 29°47' W 092°11'0 0.0
2018-Feb-10 20:58N 29°47' W 092°11'0 0.0
2018-Feb-10 20:28N 29°47' W 092°11'0 0.0
2018-Feb-10 19:58N 29°47' W 092°11'0 0.0
2018-Feb-10 19:28N 29°47' W 092°11'0 0.0
2018-Feb-10 18:58N 29°47' W 092°11'0 0.0
2018-Feb-10 18:28N 29°47' W 092°11'0 0.0
2018-Feb-10 17:58N 29°47' W 092°11'0 0.0
2018-Feb-10 17:28N 29°47' W 092°11'0 0.0
2018-Feb-10 16:58N 29°47' W 092°11'0 0.0
2018-Feb-10 16:28N 29°47' W 092°11'0 0.0
2018-Feb-10 15:58N 29°47' W 092°11'0 0.2
2018-Feb-10 15:30N 29°47' W 092°11'1 1.5
2018-Feb-10 14:58N 29°47' W 092°10'1 1.8
2018-Feb-10 14:28N 29°47' W 092°11'0 0.0
2018-Feb-10 13:58N 29°47' W 092°11'0 0.0
2018-Feb-10 13:28N 29°47' W 092°11'0 0.0
2018-Feb-10 12:58N 29°47' W 092°11'0 0.0
2018-Feb-10 12:28N 29°47' W 092°11'0 0.0
2018-Feb-10 11:58N 29°47' W 092°11'0 0.0
2018-Feb-10 11:28N 29°47' W 092°11'0 0.0
2018-Feb-10 10:58N 29°47' W 092°11'0 0.0
2018-Feb-10 10:28N 29°47' W 092°11'0 0.0
2018-Feb-10 09:58N 29°47' W 092°11'0 0.0
2018-Feb-10 09:28N 29°47' W 092°11'0 0.0
2018-Feb-10 08:58N 29°47' W 092°11'0 0.0
2018-Feb-10 08:28N 29°47' W 092°11'0 0.0
2018-Feb-10 07:58N 29°47' W 092°11'0 0.0
2018-Feb-10 07:28N 29°47' W 092°11'0 0.0
2018-Feb-10 06:58N 29°47' W 092°11'0 0.0
2018-Feb-10 06:28N 29°47' W 092°11'0 0.0
2018-Feb-10 05:58N 29°47' W 092°11'0 0.0
2018-Feb-10 05:28N 29°47' W 092°11'0 0.0
2018-Feb-10 04:58N 29°47' W 092°11'0 0.0
2018-Feb-10 04:28N 29°47' W 092°11'0 0.0
2018-Feb-10 03:58N 29°47' W 092°11'0 0.0
2018-Feb-10 03:28N 29°47' W 092°11'0 0.0
2018-Feb-10 02:55N 29°47' W 092°11'0 0.0
2018-Feb-10 02:28N 29°47' W 092°11'0 0.0
2018-Feb-10 01:58N 29°47' W 092°11'0 0.0
2018-Feb-10 01:28N 29°47' W 092°11'0 0.0
2018-Feb-10 00:58N 29°47' W 092°11'0 0.0
2018-Feb-10 00:25N 29°47' W 092°11'0 0.0
2018-Feb-09 23:55N 29°47' W 092°11'0 0.0
2018-Feb-09 23:25N 29°47' W 092°11'0 0.0
2018-Feb-09 22:55N 29°47' W 092°11'0 0.0
2018-Feb-09 22:43N 29°47' W 092°11'  
Track history (hours):
 
Tides and Currents Weather Stations Pressure Air Temp Water Temp Dewpoint Dewpoint Depression Visibility Wind Speed Wind Dir Waves Ship Positions

Arlne

Owner: N. R. Broussard Landing, Inc., ABBEVILLE, LA. More information available from US FCC via Universal Licensing System and Coast Guard Vessel Documentation Center.

Last reported at 2018-Feb-19 11:30 UTC. Time now 2018-Feb-25 15:27 UTC.
Position N 29°35' W 090°36'.

Length 20 m; draft 2.5 m.

Type: Tug. MMSI: 367097670.

Date/timePositionNaut miles runAvg speedWind from/ knotsBaromVisibWave heightAir tempDewpointWater temp
2018-Feb-19 11:30N 29°35' W 090°36'3 4.5
2018-Feb-19 10:54N 29°36' W 090°39'2 5.1
2018-Feb-19 10:30N 29°36' W 090°41'2 3.3
2018-Feb-19 10:00N 29°35' W 090°43'2 3.7
2018-Feb-19 09:30N 29°34' W 090°44'2 4.0
2018-Feb-19 09:00N 29°33' W 090°46'3 5.9
2018-Feb-19 08:29N 29°32' W 090°49'2 0.2
2018-Feb-18 19:56N 29°32' W 090°47'2 5.3
2018-Feb-18 19:30N 29°34' W 090°45'2 5.0
2018-Feb-18 19:00N 29°36' W 090°43'2 4.0
2018-Feb-18 18:30N 29°36' W 090°40'3 6.3
2018-Feb-18 18:00N 29°35' W 090°37'  
2018-Feb-15 07:44N 29°35' W 090°36'1 5.2
2018-Feb-15 07:30N 29°35' W 090°37'3 5.5
2018-Feb-15 07:00N 29°36' W 090°40'2 5.0
2018-Feb-15 06:30N 29°37' W 090°43'3 5.5
2018-Feb-15 06:00N 29°34' W 090°43'3 5.0
2018-Feb-15 05:30N 29°32' W 090°46'3 5.7
2018-Feb-15 04:56N 29°32' W 090°49'66 3.5
2018-Feb-14 10:06N 29°49' W 092°03'2 7.8
2018-Feb-14 09:53N 29°48' W 092°05'3 7.8
2018-Feb-14 09:30N 29°47' W 092°08'2 4.8
2018-Feb-14 09:00N 29°47' W 092°11'0 0.2
2018-Feb-14 08:30N 29°47' W 092°11'0 0.0
2018-Feb-14 08:00N 29°47' W 092°11'0 0.0
2018-Feb-14 07:30N 29°47' W 092°11'0 0.0
2018-Feb-14 07:00N 29°47' W 092°11'0 0.0
2018-Feb-14 06:30N 29°47' W 092°11'0 0.3
2018-Feb-14 05:59N 29°47' W 092°11'0 0.0
2018-Feb-14 05:29N 29°47' W 092°11'0 0.0
2018-Feb-14 04:59N 29°47' W 092°11'0 0.0
2018-Feb-14 04:29N 29°47' W 092°11'6 0.1
2018-Feb-12 05:21N 29°49' W 092°17'2 4.5
2018-Feb-12 05:00N 29°48' W 092°15'2 4.6
2018-Feb-12 04:30N 29°47' W 092°13'2 4.2
2018-Feb-12 04:00N 29°47' W 092°11'0 0.9
2018-Feb-12 03:28N 29°47' W 092°10'0 0.1
2018-Feb-12 03:00N 29°47' W 092°10'1 1.8
2018-Feb-12 02:28N 29°47' W 092°11'0 0.0
2018-Feb-12 01:58N 29°47' W 092°11'0 0.0
2018-Feb-12 01:28N 29°47' W 092°11'0 0.0
2018-Feb-12 00:58N 29°47' W 092°11'0 0.0
2018-Feb-12 00:28N 29°47' W 092°11'0 0.0
2018-Feb-11 23:58N 29°47' W 092°11'0 0.0
2018-Feb-11 23:28N 29°47' W 092°11'0 0.0
2018-Feb-11 22:58N 29°47' W 092°11'0 0.0
2018-Feb-11 22:28N 29°47' W 092°11'0 0.0
2018-Feb-11 21:58N 29°47' W 092°11'0 0.0
2018-Feb-11 21:28N 29°47' W 092°11'0 0.0
2018-Feb-11 20:58N 29°47' W 092°11'0 0.0
2018-Feb-11 20:28N 29°47' W 092°11'0 0.0
2018-Feb-11 19:58N 29°47' W 092°11'0 0.0
2018-Feb-11 19:28N 29°47' W 092°11'0 0.0
2018-Feb-11 18:55N 29°47' W 092°11'0 0.0
2018-Feb-11 18:28N 29°47' W 092°11'0 0.0
2018-Feb-11 17:58N 29°47' W 092°11'0 0.0
2018-Feb-11 17:28N 29°47' W 092°11'0 0.0
2018-Feb-11 16:58N 29°47' W 092°11'0 0.0
2018-Feb-11 16:28N 29°47' W 092°11'0 0.0
2018-Feb-11 15:58N 29°47' W 092°11'0 0.0
2018-Feb-11 15:28N 29°47' W 092°11'0 0.0
2018-Feb-11 14:58N 29°47' W 092°11'0 0.1
2018-Feb-11 14:28N 29°47' W 092°11'0 0.0
2018-Feb-11 13:58N 29°47' W 092°11'0 0.0
2018-Feb-11 13:28N 29°47' W 092°11'0 0.0
2018-Feb-11 12:58N 29°47' W 092°11'0 0.0
2018-Feb-11 12:28N 29°47' W 092°11'0 0.0
2018-Feb-11 11:58N 29°47' W 092°11'0 0.0
2018-Feb-11 11:28N 29°47' W 092°11'0 0.0
2018-Feb-11 10:58N 29°47' W 092°11'0 0.0
2018-Feb-11 10:28N 29°47' W 092°11'0 0.0
2018-Feb-11 09:58N 29°47' W 092°11'0 0.0
2018-Feb-11 09:28N 29°47' W 092°11'0 0.0
2018-Feb-11 08:58N 29°47' W 092°11'0 0.0
2018-Feb-11 08:28N 29°47' W 092°11'0 0.0
2018-Feb-11 07:58N 29°47' W 092°11'0 0.0
2018-Feb-11 07:28N 29°47' W 092°11'0 0.0
2018-Feb-11 06:58N 29°47' W 092°11'0 0.0
2018-Feb-11 06:28N 29°47' W 092°11'0 0.0
2018-Feb-11 05:58N 29°47' W 092°11'0 0.0
2018-Feb-11 05:28N 29°47' W 092°11'0 0.0
2018-Feb-11 04:58N 29°47' W 092°11'0 0.0
2018-Feb-11 04:28N 29°47' W 092°11'0 0.0
2018-Feb-11 03:58N 29°47' W 092°11'0 0.0
2018-Feb-11 03:28N 29°47' W 092°11'0 0.0
2018-Feb-11 02:58N 29°47' W 092°11'0 0.0
2018-Feb-11 02:28N 29°47' W 092°11'0 0.0
2018-Feb-11 01:58N 29°47' W 092°11'0 0.0
2018-Feb-11 01:28N 29°47' W 092°11'0 0.0
2018-Feb-11 00:58N 29°47' W 092°11'0 0.0
2018-Feb-11 00:28N 29°47' W 092°11'0 0.0
2018-Feb-10 23:58N 29°47' W 092°11'0 0.0
2018-Feb-10 23:28N 29°47' W 092°11'0 0.0
2018-Feb-10 22:58N 29°47' W 092°11'0 0.0
2018-Feb-10 22:25N 29°47' W 092°11'0 0.0
2018-Feb-10 21:58N 29°47' W 092°11'0 0.0
2018-Feb-10 21:28N 29°47' W 092°11'0 0.0
2018-Feb-10 20:58N 29°47' W 092°11'0 0.0
2018-Feb-10 20:28N 29°47' W 092°11'0 0.0
2018-Feb-10 19:58N 29°47' W 092°11'0 0.0
2018-Feb-10 19:28N 29°47' W 092°11'0 0.0
2018-Feb-10 18:58N 29°47' W 092°11'0 0.0
2018-Feb-10 18:28N 29°47' W 092°11'0 0.0
2018-Feb-10 17:58N 29°47' W 092°11'0 0.0
2018-Feb-10 17:28N 29°47' W 092°11'0 0.0
2018-Feb-10 16:58N 29°47' W 092°11'0 0.0
2018-Feb-10 16:28N 29°47' W 092°11'0 0.0
2018-Feb-10 15:58N 29°47' W 092°11'0 0.2
2018-Feb-10 15:30N 29°47' W 092°11'1 1.5
2018-Feb-10 14:58N 29°47' W 092°10'1 1.8
2018-Feb-10 14:28N 29°47' W 092°11'0 0.0
2018-Feb-10 13:58N 29°47' W 092°11'0 0.0
2018-Feb-10 13:28N 29°47' W 092°11'0 0.0
2018-Feb-10 12:58N 29°47' W 092°11'0 0.0
2018-Feb-10 12:28N 29°47' W 092°11'0 0.0
2018-Feb-10 11:58N 29°47' W 092°11'0 0.0
2018-Feb-10 11:28N 29°47' W 092°11'0 0.0
2018-Feb-10 10:58N 29°47' W 092°11'0 0.0
2018-Feb-10 10:28N 29°47' W 092°11'0 0.0
2018-Feb-10 09:58N 29°47' W 092°11'0 0.0
2018-Feb-10 09:28N 29°47' W 092°11'0 0.0
2018-Feb-10 08:58N 29°47' W 092°11'0 0.0
2018-Feb-10 08:28N 29°47' W 092°11'0 0.0
2018-Feb-10 07:58N 29°47' W 092°11'0 0.0
2018-Feb-10 07:28N 29°47' W 092°11'0 0.0
2018-Feb-10 06:58N 29°47' W 092°11'0 0.0
2018-Feb-10 06:28N 29°47' W 092°11'0 0.0
2018-Feb-10 05:58N 29°47' W 092°11'0 0.0
2018-Feb-10 05:28N 29°47' W 092°11'0 0.0
2018-Feb-10 04:58N 29°47' W 092°11'0 0.0
2018-Feb-10 04:28N 29°47' W 092°11'0 0.0
2018-Feb-10 03:58N 29°47' W 092°11'0 0.0
2018-Feb-10 03:28N 29°47' W 092°11'0 0.0
2018-Feb-10 02:55N 29°47' W 092°11'0 0.0
2018-Feb-10 02:28N 29°47' W 092°11'0 0.0
2018-Feb-10 01:58N 29°47' W 092°11'0 0.0
2018-Feb-10 01:28N 29°47' W 092°11'0 0.0
2018-Feb-10 00:58N 29°47' W 092°11'0 0.0
2018-Feb-10 00:25N 29°47' W 092°11'0 0.0
2018-Feb-09 23:55N 29°47' W 092°11'0 0.0
2018-Feb-09 23:25N 29°47' W 092°11'0 0.0
2018-Feb-09 22:55N 29°47' W 092°11'0 0.0
2018-Feb-09 22:43N 29°47' W 092°11'  

Dump ship's entire track history